Briefing drone pour Montchanin

Rechercher une autre localisation

Conditions de vol :


Nous sommes le : Mardi 29 novembre 2022
Il est 04:26 UTC (05:26 LT)

Lever de soleil : 06:37 UTC (07:37 LT)
Coucher de soleil : 16:23 UTC (17:23 LT)

Météo

L'essentiel des conditions de vol

VIGILANCE MÉTÉO FRANCE - Saône-et-Loire (71)
Pas de vigilances particulieres
CARTE TEMSI
CARTES DES FRONTS
METAR de LFLH
LFLH 281800Z AUTO 21004KT 9999 NSC 06/06 Q1015

Date d'émission: 28/11/2022
Heure d'émission: 18:00 UTC
Vent: 210° pour 4 KT (7 km/h)
Visibilité horizontale: > 10 km
Plafond : Pas de nuages significatifs (NSC)
Température: 6 °C
Point de rosée: 6 °C
Humidité: 100%
Pression (QNH): 1015 hPa
Prévision 24h pour Chalon-sur-saone (19 km)
Vent : 344° pour 2 KT (6 km/h)
Temperature Maxi: 5 °C
Temperature Min: 5 °C
Humidité : 92%
Condition : Nuageux



Warning: count(): Parameter must be an array or an object that implements Countable in /homepages/6/d509196549/htdocs/droneoxygene/briefing.php on line 743
WEBCAM POUR MONTCHANIN

Réglementation

Voler en sécurité

CARTES AERONAUTIQUE 1/500.000
CARTE AZBA (Reseau basse altitude)
CARTES VAC (LFLH)
SUP AIP




Chargement des AIP...
NOTAM (MONTCHANIN + Terrain à proximité / FIR )




Chargement des NOTAMS...
CONTACT PREFECTURE 71


Avertissement : Les données mises à disposition sont indicatives. Oxygène Drone ne pourra être tenu responsable de dégâts causés aux biens et aux personnes.